Flight Track Log - Related Links

Times and Time Zones

All times are in EDT time to prevent confusion due to time zone crossing. See the EJA982 flight status page for this flight to view local times or setup timezone preferences in your user account.

Time Position Orientation Groundspeed Altitude Reporting Facility
EDT Latitude Longitude Course Direction KTS MPH feet Rate Location/Type
Fri 06:18:16 PM 43.8383 -92.5450 216° Southwest 203 234 4,500  Level Minneapolis Center
Fri 06:19:18 PM 43.7847 -92.6039 218° Southwest 247 284 8,000 2,516 Climbing Minneapolis Center
Fri 06:20:20 PM 43.7208 -92.6722 218° Southwest 271 312 9,700 1,645 Climbing Minneapolis Center
Fri 06:21:22 PM 43.6481 -92.7494 218° Southwest 349 402 11,400 1,887 Climbing Minneapolis Center
Fri 06:22:24 PM 43.5589 -92.8442 218° Southwest 377 434 13,600 1,984 Climbing Minneapolis Center
Fri 06:23:00 PM 43.4377 -92.9623 216° Southwest  Level FlightAware Approximate
Fri 06:23:26 PM 43.4719 -92.9361 218° Southwest 396 456 15,500  Level Minneapolis Center
Fri 06:24:28 PM 43.3758 -93.0367 217° Southwest 405 466 17,700 1,887 Climbing Minneapolis Center
Fri 06:25:30 PM 43.2944 -93.1228 218° Southwest 404 465 19,400 1,113 Climbing Minneapolis Center
Fri 06:26:32 PM 43.2058 -93.2272 221° Southwest 420 483 20,000 290 Climbing Minneapolis Center
Fri 06:27:34 PM 43.0919 -93.3586 220° Southwest 447 514 20,000  Level Minneapolis Center
Fri 06:28:36 PM 42.9975 -93.4703 221° Southwest 453 521 20,000  Level Minneapolis Center
Fri 06:29:39 PM 42.9039 -93.5792 220° Southwest 446 513 20,000 -96 Level Minneapolis Center
Fri 06:30:41 PM 42.8094 -93.6878 220° Southwest 449 517 19,800 -1,355 Descending Minneapolis Center
Fri 06:31:43 PM 42.7144 -93.7925 219° Southwest 445 512 17,200 -2,081 Descending Minneapolis Center
Fri 06:32:45 PM 42.6117 -93.9125 221° Southwest 413 475 15,500 -2,032 Descending Minneapolis Center
Fri 06:33:47 PM 42.5258 -94.0117 220° Southwest 410 472 13,000 -2,129 Descending Minneapolis Center
Fri 06:34:49 PM 42.4403 -94.1072 220° Southwest 404 465 11,100 -1,403 Descending Minneapolis Center
Fri 06:35:51 PM 42.3583 -94.2019 221° Southwest 394 453 10,100 -532 Descending Minneapolis Center
Fri 06:36:53 PM 42.2594 -94.3122 220° Southwest 393 452 10,000 -48 Descending Minneapolis Center
Fri 06:37:55 PM 42.1664 -94.4100 218° Southwest 398 458 10,000  Level Minneapolis Center
Fri 06:38:57 PM 42.0831 -94.5053 220° Southwest 395 455 10,000  Level Minneapolis Center
Fri 06:39:59 PM 42.0028 -94.5925 219° Southwest 395 455 10,000  Level Minneapolis Center
Fri 06:41:01 PM 41.9211 -94.6861 220° Southwest 390 449 10,000  Level Minneapolis Center
Fri 06:42:03 PM 41.8364 -94.7794 219° Southwest 391 450 10,000  Level Minneapolis Center
Fri 06:43:06 PM 41.7336 -94.8922 219° Southwest 395 455 10,000  Level Minneapolis Center
Fri 06:44:08 PM 41.6475 -94.9858 219° Southwest 396 456 10,000  Level Minneapolis Center
Fri 06:44:36 PM 41.6147 -95.0428 232° Southwest 390 449 10,000  Level Minneapolis Center
Fri 06:45:10 PM 41.5633 -95.0764 206° Southwest 393 452 10,000  Level Minneapolis Center
Fri 06:45:49 PM 41.5136 -95.1506 228° Southwest 378 435 10,000  Level Minneapolis Center
Fri 06:46:12 PM 41.4836 -95.1650 200° South 385 443 10,000 -492 Level Minneapolis Center
Fri 06:46:50 PM 41.4853 -95.2517 271° West 280 322 9,500 -492 Descending Minneapolis Center
Fri 06:47:13 PM 41.4764 -95.2500 172° South 331 381 9,500 -2,000 Level Minneapolis Center
Fri 06:47:44 PM 41.4858 -95.3464 277° West 270 311 7,700 -2,000 Descending Minneapolis Center
Fri 06:48:16 PM 41.4817 -95.3758 259° West 295 339 7,400 -1,082 Descending Minneapolis Center
Fri 06:48:45 PM 41.4889 -95.4489 278° West 276 318 6,600 -1,161 Descending Minneapolis Center
Fri 06:49:18 PM 41.4864 -95.4944 266° West 280 322 6,200 -590 Descending Minneapolis Center
Fri 06:49:46 PM 41.4914 -95.5461 277° West 262 302 6,000 -194 Descending Minneapolis Center
Fri 06:50:20 PM 41.4911 -95.5922 270° West 272 313 6,000  Level Minneapolis Center
Fri 06:50:53 PM 41.4969 -95.6594 277° West 266 306 6,000 -97 Level Minneapolis Center
Fri 06:51:22 PM 41.4969 -95.6900 270° West 268 308 5,900 -1,082 Descending Minneapolis Center
Fri 06:51:54 PM 41.5014 -95.7564 275° West 265 305 4,900 -1,452 Descending Minneapolis Center
Fri 06:52:24 PM 41.5036 -95.7872 276° West 266 306 4,400 -885 Descending Minneapolis Center
Fri 06:52:55 PM 41.5039 -95.8536 270° West 265 305 4,000 -387 Descending Minneapolis Center
Fri 06:53:26 PM 41.4983 -95.8617 227° Southwest 264 304 4,000 -500 Level Minneapolis Center
Fri 06:53:55 PM 41.4694 -95.9356 242° Southwest 251 289 3,500 -968 Descending Minneapolis Center
Fri 06:54:28 PM 41.4397 -95.9608 213° Southwest 250 288 3,000 -885 Descending Minneapolis Center
Fri 06:54:56 PM 41.4186 -95.9886 225° Southwest 201 231 2,600 -290 Descending Minneapolis Center
Fri 06:55:30 PM 41.3953 -95.9789 163° South 210 242 2,700 -98 Climbing Minneapolis Center
Fri 06:55:57 PM 41.3797 -95.9708 159° South 132 152 2,500 -484 Descending Minneapolis Center
Fri 06:56:32 PM 41.3625 -95.9456 132° Southeast 166 191 2,200 -689 Descending Minneapolis Center
Fri 06:56:58 PM 41.3483 -95.9383 159° South 134 154 1,800 -677 Descending Minneapolis Center
Fri 06:57:34 PM 41.3322 -95.9175 136° Southeast 146 168 1,500 -429 Descending Minneapolis Center
Fri 06:58:36 PM 41.3069 -95.8933 144° Southeast 139 160 1,100 -387 Descending Minneapolis Center

Login

Don't have an account? Register now (free) for customized features, flight alerts, and more!